< < Back
Terminal Aerodrome Forecast


Current Version              Previous Versions:   1  2  3  4  5  6  7  8  9  

Terminal Aerodrome Forecast

504
FTUS42 KGSP 290500
TAFGSP
TAF
KGSP 290521Z 2906/3006 35003KT P6SM SKC
     FM291600 36003KT P6SM FEW060
     FM292000 35006KT P6SM SCT060=



Latest METAR

002
SAUS70 KWBC 290600 RRN
MTRGSP
METAR KGSP 290553Z AUTO 35003KT 10SM CLR 21/14 A2993 RMK AO2 SLP120
T02060144 10267 20206 58001


USA.gov is the U.S. government's official web portal to all federal, state and local government web resources and services.